Terminal Aerodrome Forecast
Issued by NWS

Home | Current Version | Previous Version | Graphics & Text | Print | Product List | Glossary On
Versions: 1 2 3 4 5 6 7 8 9 10 11 12 13 14 15 16 17 18
000
FTUS42 KMHX 220108 AAA
TAFISO
TAF AMD
KISO 220108Z 2201/2224 35009KT P6SM SCT015
     FM220300 36006KT P6SM SCT007 BKN015
      TEMPO 2206/2208 BKN008
     FM221000 36008KT P6SM SCT030
      AMD LTD TO CLD VIS AND WIND=

USA.gov is the U.S. government's official web portal to all federal, state and local government web resources and services.